Time;durP1;ratioP1;P1;durP2;ratioP2;P2;SDS_P1;SDS_P2;PMS_P1;PMS_P2;Temp;Humidity;BMP_temperature;BMP_pressure;BME280_temperature;BME280_humidity;BME280_pressure;Samples;Min_cycle;Max_cycle;Signal;HPM_P1;HPM_P2
2021/12/19 00:00:17;;;;;;;0.47;0.45;;;;;;;9.30;100.00;102258.59;4986926;28;20034;-67
2021/12/19 00:10:36;;;;;;;1.70;0.70;;;;;;;9.26;100.00;102225.34;4987908;28;20054;-66
2021/12/19 00:13:02;;;;;;;1.75;0.80;;;;;;;9.16;100.00;102233.66;4989142;28;20498;-66
2021/12/19 00:15:27;;;;;;;1.67;0.90;;;;;;;9.10;100.00;102227.63;4988630;28;20034;-66
2021/12/19 00:17:53;;;;;;;5.40;0.98;;;;;;;9.21;100.00;102228.19;4990805;28;20114;-66
2021/12/19 00:20:18;;;;;;;0.60;0.60;;;;;;;9.32;100.00;102226.81;4987546;28;20560;-66
2021/12/19 00:22:44;;;;;;;1.45;0.68;;;;;;;9.20;100.00;102222.00;4989856;28;20072;-67
2021/12/19 00:25:10;;;;;;;0.88;0.73;;;;;;;9.30;100.00;102220.94;4987773;28;20033;-66
2021/12/19 00:27:36;;;;;;;3.72;0.80;;;;;;;9.28;100.00;102207.81;4993042;28;20033;-66
2021/12/19 00:30:05;;;;;;;6.65;1.20;;;;;;;9.23;100.00;102194.53;4986790;28;20403;-66
2021/12/19 00:32:31;;;;;;;1.35;0.77;;;;;;;9.30;100.00;102192.19;4995602;28;20105;-66
2021/12/19 00:34:56;;;;;;;1.35;0.80;;;;;;;9.25;100.00;102205.75;4975459;28;20147;-66
2021/12/19 00:37:22;;;;;;;3.40;0.93;;;;;;;9.40;100.00;102204.56;4991244;28;20041;-66
2021/12/19 00:39:48;;;;;;;1.73;1.15;;;;;;;9.30;100.00;102196.75;4989290;28;20026;-66
2021/12/19 00:42:26;;;;;;;4.35;1.00;;;;;;;9.36;100.00;102204.41;4997344;28;20041;-66
2021/12/19 00:44:53;;;;;;;0.90;0.82;;;;;;;9.35;100.00;102193.97;4991015;28;20042;-66
2021/12/19 00:47:18;;;;;;;6.93;0.85;;;;;;;9.18;100.00;102194.63;4988738;28;20123;-66
2021/12/19 00:49:44;;;;;;;0.70;0.70;;;;;;;9.26;100.00;102191.22;4999030;28;20043;-66
2021/12/19 00:52:09;;;;;;;1.52;0.98;;;;;;;9.19;100.00;102190.06;4999945;28;20080;-66
2021/12/19 00:54:35;;;;;;;4.40;1.00;;;;;;;9.21;100.00;102195.94;4978036;28;20078;-66
2021/12/19 00:57:00;;;;;;;2.47;1.05;;;;;;;9.22;100.00;102194.81;4990821;28;20463;-66
2021/12/19 00:59:26;;;;;;;1.33;1.08;;;;;;;9.22;100.00;102179.47;4991528;28;20049;-66
2021/12/19 01:01:51;;;;;;;3.05;1.15;;;;;;;9.27;100.00;102173.97;4991136;28;20065;-67
2021/12/19 01:04:22;;;;;;;1.88;1.10;;;;;;;9.39;100.00;102168.06;4995913;28;20098;-66
2021/12/19 01:06:48;;;;;;;3.95;0.90;;;;;;;9.31;100.00;102166.09;4997215;28;20045;-66
2021/12/19 01:09:14;;;;;;;3.22;1.35;;;;;;;9.34;100.00;102154.72;4981484;28;20034;-66
2021/12/19 01:11:40;;;;;;;3.75;0.88;;;;;;;9.30;100.00;102149.19;4992900;28;20048;-66
2021/12/19 01:14:08;;;;;;;2.92;1.10;;;;;;;9.21;100.00;102144.84;4991069;28;20030;-66
2021/12/19 01:16:33;;;;;;;4.10;1.30;;;;;;;9.20;100.00;102156.69;4985956;28;20539;-66
2021/12/19 01:18:59;;;;;;;1.15;1.05;;;;;;;9.29;100.00;102142.19;4991439;28;20034;-66
2021/12/19 01:21:25;;;;;;;2.28;1.10;;;;;;;9.32;100.00;102146.97;4992612;28;20633;-66
2021/12/19 01:23:50;;;;;;;5.47;1.48;;;;;;;9.24;100.00;102134.28;4992715;28;20031;-66
2021/12/19 01:26:16;;;;;;;3.55;1.10;;;;;;;9.21;100.00;102134.91;4984741;28;20034;-66
2021/12/19 01:28:42;;;;;;;4.30;1.20;;;;;;;9.28;100.00;102147.88;4986755;28;20035;-67
2021/12/19 01:31:09;;;;;;;1.30;0.80;;;;;;;9.27;100.00;102141.72;4987243;28;20114;-66
2021/12/19 01:33:35;;;;;;;2.40;1.48;;;;;;;9.31;100.00;102145.38;4996036;28;20073;-66
2021/12/19 01:36:00;;;;;;;5.10;1.10;;;;;;;9.19;100.00;102152.44;4982043;28;20046;-66
2021/12/19 01:38:26;;;;;;;3.42;1.20;;;;;;;9.10;100.00;102150.50;4987596;28;20038;-66
2021/12/19 01:40:51;;;;;;;5.10;1.08;;;;;;;9.13;100.00;102146.41;4994201;28;20414;-66
2021/12/19 01:43:20;;;;;;;2.05;1.48;;;;;;;9.18;100.00;102153.53;4982543;28;20038;-66
2021/12/19 01:45:46;;;;;;;3.08;1.40;;;;;;;9.11;100.00;102140.53;4988243;28;20045;-66
2021/12/19 01:48:13;;;;;;;2.45;1.33;;;;;;;9.24;100.00;102145.03;4992679;28;20120;-66
2021/12/19 01:50:40;;;;;;;1.20;1.10;;;;;;;9.34;100.00;102138.59;4972330;28;20035;-67
2021/12/19 01:53:11;;;;;;;1.17;0.63;;;;;;;9.16;100.00;102128.84;4983224;28;20058;-66
2021/12/19 01:55:37;;;;;;;7.20;1.23;;;;;;;9.26;100.00;102129.38;4990273;28;20345;-66
2021/12/19 01:58:05;;;;;;;2.05;0.90;;;;;;;9.28;100.00;102126.38;5008973;28;20265;-66
2021/12/19 02:00:39;;;;;;;2.15;1.17;;;;;;;9.34;100.00;102114.41;4996205;28;20045;-66
2021/12/19 02:03:05;;;;;;;4.65;1.20;;;;;;;9.30;100.00;102110.75;4992842;28;20150;-66
2021/12/19 02:05:31;;;;;;;6.05;1.42;;;;;;;9.30;100.00;102108.84;4987289;28;20050;-66
2021/12/19 02:07:58;;;;;;;1.55;0.93;;;;;;;9.25;100.00;102110.88;4992733;28;20045;-66
2021/12/19 02:10:27;;;;;;;1.15;0.63;;;;;;;9.25;100.00;102105.50;4992022;28;20407;-66
2021/12/19 02:12:54;;;;;;;2.55;1.35;;;;;;;9.30;100.00;102098.09;4983991;28;20019;-66
2021/12/19 02:15:22;;;;;;;1.90;0.98;;;;;;;9.29;100.00;102101.09;4988215;28;20517;-66
2021/12/19 02:17:54;;;;;;;2.25;1.02;;;;;;;9.24;100.00;102093.97;4992939;28;20533;-66
2021/12/19 02:20:22;;;;;;;2.00;0.82;;;;;;;9.22;100.00;102090.00;4990817;28;20414;-66
2021/12/19 02:22:48;;;;;;;1.60;1.05;;;;;;;9.22;100.00;102093.47;4984489;28;20035;-67
2021/12/19 02:25:21;;;;;;;0.77;0.60;;;;;;;9.33;100.00;102091.31;4984963;28;20046;-66
2021/12/19 02:27:46;;;;;;;1.13;0.70;;;;;;;9.37;100.00;102094.97;4995593;28;20038;-66
2021/12/19 02:30:12;;;;;;;1.45;0.77;;;;;;;9.36;100.00;102090.69;4990187;28;20034;-66
2021/12/19 02:32:40;;;;;;;5.20;1.13;;;;;;;9.26;100.00;102094.44;4986704;28;20034;-66
2021/12/19 02:35:09;;;;;;;1.08;0.60;;;;;;;9.39;100.00;102084.72;5000857;28;20041;-66
2021/12/19 02:48:10;;;;;;;6.30;1.58;;;;;;;9.28;100.00;102080.69;4990243;28;20545;-66
2021/12/19 02:48:29;;;;;;;;;;;;;;;9.29;100.00;102090.34;4991246;28;20037;-67
2021/12/19 02:50:55;;;;;;;4.25;0.88;;;;;;;9.23;100.00;102096.97;4990545;28;19914;-66
2021/12/19 02:53:33;;;;;;;4.32;1.40;;;;;;;9.31;100.00;102080.84;4988159;28;20105;-66
2021/12/19 02:56:06;;;;;;;1.33;1.20;;;;;;;9.44;100.00;102089.94;4965706;28;20146;-66
2021/12/19 02:58:33;;;;;;;2.33;1.25;;;;;;;9.31;100.00;102080.09;4987135;28;20391;-66
2021/12/19 03:01:04;;;;;;;2.58;1.15;;;;;;;9.27;100.00;102061.06;4990746;28;20022;-66
2021/12/19 03:03:30;;;;;;;2.47;1.80;;;;;;;9.29;100.00;102068.84;4989976;28;20166;-66
2021/12/19 03:05:56;;;;;;;1.55;0.77;;;;;;;9.22;100.00;102060.44;4997406;28;20517;-66
2021/12/19 03:08:21;;;;;;;2.00;1.45;;;;;;;9.29;100.00;102075.00;4998453;28;20034;-66
2021/12/19 03:19:05;;;;;;;1.17;0.70;;;;;;;9.21;100.00;102062.34;4991937;28;20034;-66
2021/12/19 03:21:34;;;;;;;2.55;1.38;;;;;;;9.30;100.00;102073.91;4995751;28;20041;-66
2021/12/19 03:23:59;;;;;;;3.58;1.27;;;;;;;9.28;100.00;102064.56;4987552;28;20038;-66
2021/12/19 03:26:25;;;;;;;5.60;1.15;;;;;;;9.18;100.00;102046.81;4994252;28;20104;-66
2021/12/19 03:28:50;;;;;;;2.00;1.33;;;;;;;9.23;100.00;102048.59;4996397;28;20045;-66
2021/12/19 03:31:16;;;;;;;8.70;1.30;;;;;;;9.26;100.00;102047.97;4994450;28;20121;-66
2021/12/19 03:33:42;;;;;;;3.38;1.20;;;;;;;9.22;100.00;102052.38;4981630;28;20034;-66
2021/12/19 03:36:08;;;;;;;2.05;1.15;;;;;;;9.17;100.00;102061.38;4993475;28;20030;-67
2021/12/19 03:38:39;;;;;;;7.22;1.27;;;;;;;9.22;100.00;102052.38;4999038;28;20498;-67
2021/12/19 03:43:36;;;;;;;0.77;0.65;;;;;;;9.12;100.00;102041.91;4983759;28;20034;-67
2021/12/19 03:46:02;;;;;;;3.78;1.15;;;;;;;9.35;100.00;102040.72;4996860;28;20506;-67
2021/12/19 03:48:27;;;;;;;3.15;1.25;;;;;;;9.17;100.00;102041.75;4988708;28;20038;-66
2021/12/19 03:50:52;;;;;;;2.08;0.88;;;;;;;9.32;100.00;102041.34;4993648;28;20096;-67
2021/12/19 03:53:21;;;;;;;2.05;0.77;;;;;;;9.41;100.00;102039.47;4993917;28;20578;-67
2021/12/19 03:55:47;;;;;;;1.27;0.80;;;;;;;9.30;100.00;102030.91;4997673;28;20034;-67
2021/12/19 03:58:12;;;;;;;2.10;0.77;;;;;;;9.33;100.00;102027.59;4992945;28;20551;-66
2021/12/19 04:00:42;;;;;;;2.17;0.80;;;;;;;9.29;100.00;102032.00;4982906;28;20049;-67
2021/12/19 04:03:09;;;;;;;0.98;0.68;;;;;;;9.27;100.00;102052.25;4992117;28;20462;-67
2021/12/19 04:05:38;;;;;;;0.30;0.30;;;;;;;9.22;100.00;102052.38;4993436;28;20038;-67
2021/12/19 04:08:04;;;;;;;0.98;0.43;;;;;;;9.33;100.00;102045.63;4991140;28;20039;-67
2021/12/19 04:10:30;;;;;;;0.75;0.40;;;;;;;9.24;100.00;102036.72;4985886;28;20466;-67
2021/12/19 04:12:57;;;;;;;1.65;0.50;;;;;;;9.21;100.00;102023.91;4992503;28;20053;-67
2021/12/19 04:15:23;;;;;;;0.43;0.43;;;;;;;9.28;100.00;102019.66;4988929;28;20034;-68
2021/12/19 04:17:50;;;;;;;0.90;0.25;;;;;;;9.23;100.00;102011.75;4995125;28;20198;-67
2021/12/19 04:20:18;;;;;;;0.75;0.45;;;;;;;9.22;100.00;102009.38;4996308;23;20042;-68
2021/12/19 04:22:44;;;;;;;0.40;0.25;;;;;;;9.20;100.00;102006.19;4979972;28;20558;-68
2021/12/19 04:25:10;;;;;;;0.50;0.32;;;;;;;9.26;100.00;102011.13;4989720;28;20042;-66
2021/12/19 04:27:36;;;;;;;0.43;0.40;;;;;;;9.28;100.00;102005.44;4980336;28;20097;-67
2021/12/19 04:30:04;;;;;;;0.63;0.43;;;;;;;9.30;100.00;102001.34;4993240;28;20041;-67
2021/12/19 04:32:34;;;;;;;0.73;0.25;;;;;;;9.08;100.00;101996.84;4988348;28;20046;-68
2021/12/19 04:35:00;;;;;;;0.30;0.30;;;;;;;9.14;100.00;102007.47;4977070;28;20057;-67
2021/12/19 04:40:18;;;;;;;0.40;0.30;;;;;;;9.15;100.00;101982.16;4953737;29;20043;-68
2021/12/19 04:51:40;;;;;;;0.52;0.40;;;;;;;9.12;100.00;101988.94;4969142;28;20043;-67
2021/12/19 05:15:27;;;;;;;0.60;0.60;;;;;;;9.20;100.00;101960.50;4976759;28;20410;-67
2021/12/19 05:17:56;;;;;;;0.75;0.50;;;;;;;9.18;100.00;101966.19;4981291;28;20034;-68
2021/12/19 05:20:26;;;;;;;0.82;0.55;;;;;;;9.23;100.00;101954.53;4983292;28;20113;-68
2021/12/19 05:22:55;;;;;;;3.60;0.60;;;;;;;9.20;100.00;101963.19;4953276;28;20603;-67
2021/12/19 05:25:21;;;;;;;0.88;0.40;;;;;;;9.18;100.00;101949.28;4967241;28;20431;-67
2021/12/19 05:27:52;;;;;;;2.97;0.60;;;;;;;9.23;100.00;101952.63;4979692;28;20031;-68
2021/12/19 05:30:18;;;;;;;4.38;0.60;;;;;;;9.12;100.00;101945.19;4981028;28;20713;-67
2021/12/19 05:32:46;;;;;;;0.98;0.47;;;;;;;9.16;100.00;101946.91;4958906;28;20035;-66
2021/12/19 05:35:16;;;;;;;0.50;0.30;;;;;;;9.20;100.00;101936.31;4960229;28;20035;-66
2021/12/19 05:45:53;;;;;;;0.45;0.45;;;;;;;9.14;100.00;101927.63;4982346;28;20104;-68
2021/12/19 05:48:19;;;;;;;1.08;0.50;;;;;;;9.24;100.00;101908.50;4967249;28;20471;-67
2021/12/19 05:50:44;;;;;;;1.20;0.80;;;;;;;9.25;100.00;101912.00;4976504;28;20158;-67
2021/12/19 05:53:13;;;;;;;0.93;0.68;;;;;;;9.24;100.00;101913.09;4987079;28;20061;-67
2021/12/19 05:55:40;;;;;;;2.80;0.68;;;;;;;9.18;100.00;101914.34;4962694;28;20456;-67
2021/12/19 05:58:06;;;;;;;2.45;0.60;;;;;;;9.23;100.00;101914.22;4961972;28;20035;-68
2021/12/19 06:00:35;;;;;;;0.90;0.75;;;;;;;9.23;100.00;101919.59;4973541;28;20092;-67
2021/12/19 06:03:02;;;;;;;1.25;0.60;;;;;;;9.15;100.00;101906.91;4975069;28;20153;-67
2021/12/19 06:05:28;;;;;;;2.83;0.82;;;;;;;9.27;100.00;101904.41;4970298;28;20081;-67
2021/12/19 06:07:53;;;;;;;3.85;1.05;;;;;;;9.22;100.00;101896.47;4969577;28;20419;-67
2021/12/19 06:10:20;;;;;;;0.45;0.45;;;;;;;9.21;100.00;101890.34;4969780;28;20045;-67
2021/12/19 06:12:46;;;;;;;0.65;0.50;;;;;;;9.24;100.00;101888.91;4972987;28;20143;-66
2021/12/19 06:15:12;;;;;;;0.95;0.68;;;;;;;9.16;100.00;101897.75;4969750;28;20089;-66
2021/12/19 06:17:40;;;;;;;0.68;0.50;;;;;;;9.24;100.00;101902.34;4970449;28;20046;-66
2021/12/19 06:20:07;;;;;;;0.50;0.50;;;;;;;9.33;100.00;101903.94;4967844;28;20031;-67
2021/12/19 06:22:35;;;;;;;1.05;0.45;;;;;;;9.35;100.00;101903.63;4967739;28;20042;-68
2021/12/19 06:25:01;;;;;;;1.10;0.90;;;;;;;9.28;100.00;101895.22;4963817;28;20031;-66
2021/12/19 06:27:27;;;;;;;2.45;0.70;;;;;;;9.36;100.00;101889.06;4965657;28;20109;-67
2021/12/19 06:29:52;;;;;;;4.28;0.50;;;;;;;9.28;100.00;101879.09;4978554;28;20043;-66
2021/12/19 06:32:18;;;;;;;1.50;0.93;;;;;;;9.27;100.00;101882.91;4968750;28;20034;-68
2021/12/19 06:34:43;;;;;;;4.05;0.63;;;;;;;9.29;100.00;101878.78;4981431;28;20058;-67
2021/12/19 06:37:10;;;;;;;2.22;1.00;;;;;;;9.33;100.00;101884.34;4975953;28;20106;-66
2021/12/19 06:39:37;;;;;;;0.32;0.32;;;;;;;9.36;100.00;101881.81;4981348;28;20066;-67
2021/12/19 06:42:04;;;;;;;0.80;0.50;;;;;;;9.40;100.00;101869.31;4975968;28;20038;-66
2021/12/19 06:44:30;;;;;;;0.80;0.70;;;;;;;9.33;100.00;101878.97;4981792;28;20038;-67
2021/12/19 06:46:59;;;;;;;1.05;0.57;;;;;;;9.20;100.00;101878.00;4975923;28;20033;-67
2021/12/19 06:49:24;;;;;;;0.47;0.47;;;;;;;9.27;100.00;101870.25;4978001;28;20125;-67
2021/12/19 06:51:50;;;;;;;5.97;0.65;;;;;;;9.21;100.00;101868.03;4983819;28;20061;-67
2021/12/19 06:54:15;;;;;;;0.50;0.50;;;;;;;9.27;100.00;101878.31;4985114;28;20065;-67
2021/12/19 06:56:40;;;;;;;0.95;0.38;;;;;;;9.38;100.00;101874.22;4984655;28;20034;-67
2021/12/19 06:59:06;;;;;;;0.80;0.38;;;;;;;9.42;100.00;101885.13;4985715;28;20092;-67
2021/12/19 07:01:32;;;;;;;11.13;0.63;;;;;;;9.39;100.00;101883.09;4976474;28;20037;-67
2021/12/19 07:03:58;;;;;;;0.82;0.40;;;;;;;9.46;100.00;101875.31;4975249;28;20161;-67
2021/12/19 07:06:23;;;;;;;0.82;0.60;;;;;;;9.47;100.00;101879.59;4974488;28;20129;-67
2021/12/19 07:08:49;;;;;;;1.45;0.43;;;;;;;9.51;99.18;101877.84;4975100;28;20150;-67
2021/12/19 07:11:14;;;;;;;2.53;0.73;;;;;;;9.46;99.49;101881.50;4975989;28;20498;-67
2021/12/19 07:13:40;;;;;;;0.38;0.38;;;;;;;9.46;99.38;101878.00;4969501;28;20051;-67
2021/12/19 07:16:07;;;;;;;0.95;0.73;;;;;;;9.41;100.00;101870.09;4978975;28;20030;-67
2021/12/19 07:18:32;;;;;;;3.75;0.82;;;;;;;9.37;99.95;101858.41;4973536;28;20023;-67
2021/12/19 07:20:58;;;;;;;3.30;0.45;;;;;;;9.38;99.94;101865.34;4966528;28;20034;-67
2021/12/19 07:23:27;;;;;;;1.30;0.63;;;;;;;9.39;99.70;101848.13;4968502;28;20050;-67
2021/12/19 07:25:53;;;;;;;3.75;0.50;;;;;;;9.41;99.71;101859.34;4970466;28;20035;-67
2021/12/19 07:28:18;;;;;;;2.92;0.35;;;;;;;9.33;99.56;101847.47;4969791;28;20038;-67
2021/12/19 07:30:43;;;;;;;5.45;0.40;;;;;;;9.35;99.54;101852.56;4975119;28;20034;-67
2021/12/19 07:33:11;;;;;;;4.13;0.45;;;;;;;9.39;99.82;101853.50;4956758;28;20035;-67
2021/12/19 07:35:41;;;;;;;0.60;0.60;;;;;;;9.41;99.82;101849.38;4968188;28;20035;-67
2021/12/19 07:38:09;;;;;;;0.40;0.40;;;;;;;9.33;100.00;101854.78;4974770;28;20038;-66
2021/12/19 07:40:39;;;;;;;1.48;0.55;;;;;;;9.40;100.00;101860.47;4974995;28;20047;-66
2021/12/19 07:43:10;;;;;;;4.45;1.45;;;;;;;9.39;99.67;101858.88;4972605;28;20035;-66
2021/12/19 07:45:36;;;;;;;2.08;1.00;;;;;;;9.47;99.54;101855.38;4972247;28;20039;-66
2021/12/19 07:48:02;;;;;;;4.95;0.85;;;;;;;9.37;99.82;101848.44;4982971;28;20046;-66
2021/12/19 07:50:28;;;;;;;0.38;0.38;;;;;;;9.46;99.39;101853.81;4973096;28;20042;-66
2021/12/19 07:52:54;;;;;;;0.88;0.30;;;;;;;9.44;99.21;101859.53;4973346;28;20022;-66
2021/12/19 07:55:21;;;;;;;1.20;0.50;;;;;;;9.55;98.67;101841.94;4973640;28;20037;-66
2021/12/19 07:57:46;;;;;;;6.90;0.50;;;;;;;9.45;99.04;101844.16;4975643;28;20106;-67
2021/12/19 08:00:16;;;;;;;1.83;0.88;;;;;;;9.54;98.67;101848.41;4973676;28;20459;-67
2021/12/19 08:02:42;;;;;;;2.25;0.90;;;;;;;9.47;99.54;101842.75;4967211;28;20035;-68
2021/12/19 08:05:09;;;;;;;2.03;0.90;;;;;;;9.55;98.84;101850.00;4983226;28;20026;-67
2021/12/19 08:07:35;;;;;;;0.47;0.45;;;;;;;9.49;99.68;101858.53;4955677;28;20543;-68
2021/12/19 08:12:38;;;;;;;4.28;0.70;;;;;;;9.49;98.96;101842.41;4965526;28;20030;-66
2021/12/19 08:15:05;;;;;;;0.60;0.60;;;;;;;9.54;98.45;101836.91;4981513;28;20077;-66
2021/12/19 08:17:31;;;;;;;2.67;0.65;;;;;;;9.48;99.17;101833.59;4973511;28;20055;-67
2021/12/19 08:19:57;;;;;;;0.75;0.50;;;;;;;9.50;99.36;101825.19;4963992;28;20050;-67
2021/12/19 08:22:23;;;;;;;0.85;0.55;;;;;;;9.45;99.03;101828.81;4966489;28;20109;-69
2021/12/19 08:24:50;;;;;;;3.22;0.77;;;;;;;9.56;99.08;101832.00;4970265;28;20166;-66
2021/12/19 08:27:15;;;;;;;4.18;1.00;;;;;;;9.59;98.96;101823.28;4983928;28;20504;-68
2021/12/19 08:29:41;;;;;;;3.95;0.75;;;;;;;9.58;99.08;101824.41;4967715;28;20031;-66
2021/12/19 08:32:07;;;;;;;0.70;0.50;;;;;;;9.58;99.21;101817.09;4972485;28;20031;-67
2021/12/19 08:34:33;;;;;;;0.80;0.47;;;;;;;9.53;98.84;101801.13;4974084;28;20442;-66
2021/12/19 08:36:59;;;;;;;4.47;0.50;;;;;;;9.62;98.04;101801.13;4973138;28;20110;-66
2021/12/19 08:39:24;;;;;;;1.00;0.43;;;;;;;9.56;98.88;101805.09;4968502;28;20129;-67
2021/12/19 08:41:50;;;;;;;0.52;0.50;;;;;;;9.55;98.33;101804.31;4961131;28;20485;-68
2021/12/19 08:44:15;;;;;;;1.23;0.68;;;;;;;9.48;99.78;101804.00;4971559;28;20477;-67
2021/12/19 08:46:41;;;;;;;1.35;0.60;;;;;;;9.65;98.58;101803.97;4956922;28;20046;-67
2021/12/19 08:49:08;;;;;;;1.75;0.68;;;;;;;9.76;98.41;101802.50;4973098;28;20463;-66
2021/12/19 08:51:34;;;;;;;0.70;0.40;;;;;;;9.73;98.51;101813.94;4981936;28;20070;-67
2021/12/19 08:54:00;;;;;;;3.55;0.68;;;;;;;9.54;99.20;101810.00;4969775;28;20463;-66
2021/12/19 08:56:29;;;;;;;1.02;0.50;;;;;;;9.56;99.96;101808.56;4982008;28;20647;-67
2021/12/19 08:58:55;;;;;;;0.35;0.35;;;;;;;9.70;98.71;101816.44;4979949;28;20034;-67
2021/12/19 09:01:22;;;;;;;2.33;0.70;;;;;;;9.72;98.33;101806.16;4965126;28;20039;-67
2021/12/19 09:03:47;;;;;;;3.65;1.00;;;;;;;9.68;99.14;101797.16;4981402;28;20546;-66
2021/12/19 09:06:13;;;;;;;1.00;0.43;;;;;;;9.72;98.55;101798.09;4970864;28;20073;-67
2021/12/19 09:08:39;;;;;;;4.40;0.55;;;;;;;9.63;99.23;101808.09;4964814;28;20380;-67
2021/12/19 09:11:05;;;;;;;0.57;0.50;;;;;;;9.60;99.91;101784.53;4966522;28;20049;-67
2021/12/19 09:13:30;;;;;;;0.47;0.35;;;;;;;9.80;100.00;101775.75;4976222;28;20054;-66
2021/12/19 09:15:56;;;;;;;11.00;0.73;;;;;;;9.86;99.57;101774.47;4972344;28;20645;-66
2021/12/19 09:18:22;;;;;;;0.57;0.55;;;;;;;9.81;99.12;101774.66;4970795;28;20028;-66
2021/12/19 09:20:50;;;;;;;4.18;0.70;;;;;;;9.89;98.02;101773.84;4984326;28;20034;-67
2021/12/19 09:23:17;;;;;;;3.53;0.77;;;;;;;9.80;98.14;101779.25;4964042;28;20042;-68
2021/12/19 09:25:42;;;;;;;1.63;0.45;;;;;;;9.74;99.25;101782.41;4970269;28;20400;-67
2021/12/19 09:28:08;;;;;;;0.40;0.40;;;;;;;9.70;99.43;101797.63;4971553;28;20034;-67
2021/12/19 09:30:34;;;;;;;1.13;0.50;;;;;;;9.73;99.34;101788.91;4973857;28;20042;-68
2021/12/19 09:32:59;;;;;;;6.88;0.65;;;;;;;9.90;98.53;101784.28;4973942;28;20023;-67
2021/12/19 09:35:27;;;;;;;1.30;0.60;;;;;;;9.81;99.10;101780.03;4949862;28;20039;-67
2021/12/19 09:37:53;;;;;;;0.80;0.52;;;;;;;9.92;98.05;101781.25;4968199;28;20037;-67
2021/12/19 09:40:22;;;;;;;1.92;0.70;;;;;;;9.92;98.25;101775.88;4975481;28;20073;-67
2021/12/19 09:42:51;;;;;;;1.02;0.40;;;;;;;9.90;98.84;101778.09;4986404;28;20088;-67
2021/12/19 09:45:18;;;;;;;3.50;0.75;;;;;;;9.90;98.69;101778.09;4972024;28;20420;-67
2021/12/19 09:47:45;;;;;;;4.07;0.88;;;;;;;9.94;98.64;101774.47;4969175;28;20041;-67
2021/12/19 09:50:11;;;;;;;2.22;1.13;;;;;;;9.79;99.75;101764.19;4983396;28;20045;-67
2021/12/19 09:52:37;;;;;;;4.75;0.73;;;;;;;9.87;99.90;101765.31;4960305;28;20031;-67
2021/12/19 09:55:03;;;;;;;0.50;0.50;;;;;;;9.99;98.82;101765.41;4965837;28;20035;-68
2021/12/19 09:57:29;;;;;;;1.77;0.90;;;;;;;9.93;98.51;101772.06;4962114;28;20043;-67
2021/12/19 09:59:55;;;;;;;4.57;0.50;;;;;;;9.93;98.94;101772.06;4972305;28;20089;-67
2021/12/19 10:02:21;;;;;;;1.00;0.60;;;;;;;10.04;98.22;101773.31;4970488;28;20078;-67
2021/12/19 10:04:46;;;;;;;0.47;0.47;;;;;;;10.02;98.14;101773.63;4960135;28;20069;-67
2021/12/19 10:07:19;;;;;;;4.05;0.60;;;;;;;10.03;98.30;101767.13;4991595;28;20042;-67
2021/12/19 10:09:55;;;;;;;1.38;0.30;;;;;;;10.02;98.09;101759.38;4970519;28;20038;-67
2021/12/19 10:12:38;;;;;;;2.70;0.80;;;;;;;9.97;98.79;101756.84;4960963;28;20121;-67
2021/12/19 10:15:14;;;;;;;3.15;1.17;;;;;;;9.97;98.47;101751.47;4969619;28;20038;-67
2021/12/19 10:17:40;;;;;;;2.65;0.43;;;;;;;10.02;98.02;101756.69;4972103;28;20404;-67
2021/12/19 10:20:12;;;;;;;1.90;0.85;;;;;;;9.96;98.94;101756.09;4959196;28;20039;-67
2021/12/19 10:22:39;;;;;;;3.22;0.82;;;;;;;9.97;98.92;101740.72;4994088;23;20130;-68
2021/12/19 10:25:21;;;;;;;3.60;0.70;;;;;;;10.10;97.91;101726.28;4999832;28;20109;-69
2021/12/19 10:27:50;;;;;;;1.42;0.60;;;;;;;10.15;97.50;101726.09;4989034;28;20073;-68
2021/12/19 10:30:22;;;;;;;0.45;0.40;;;;;;;10.13;97.69;101728.31;5000272;28;20093;-69
2021/12/19 10:32:53;;;;;;;;;;;;;;;10.11;96.88;101735.94;4993946;28;20047;-68
2021/12/19 10:35:32;;;;;;;2.35;0.47;;;;;;;10.17;96.51;101726.56;5014979;28;19959;-68
2021/12/19 10:38:00;;;;;;;1.48;0.47;;;;;;;10.11;97.89;101732.44;4993419;28;20053;-68
2021/12/19 10:40:27;;;;;;;1.00;0.80;;;;;;;10.16;97.43;101737.66;4992368;28;20089;-68
2021/12/19 10:43:00;;;;;;;3.45;0.60;;;;;;;10.15;96.88;101715.34;4989660;28;20030;-68
2021/12/19 10:45:52;;;;;;;1.77;0.75;;;;;;;10.12;97.40;101710.63;4998501;28;20679;-69
2021/12/19 10:48:19;;;;;;;1.08;0.65;;;;;;;10.24;97.00;101708.00;4994727;28;20125;-69
2021/12/19 10:51:09;;;;;;;0.98;0.30;;;;;;;10.09;97.78;101710.41;4999205;28;20037;-67
2021/12/19 10:53:42;;;;;;;1.00;0.40;;;;;;;10.21;96.80;101703.28;4988375;28;20048;-68
2021/12/19 10:56:29;;;;;;;1.02;0.63;;;;;;;10.13;97.03;101703.31;4996897;28;20053;-68
2021/12/19 10:58:59;;;;;;;0.40;0.40;;;;;;;10.14;97.93;101697.63;4992555;28;20039;-68
2021/12/19 11:01:37;;;;;;;0.85;0.65;;;;;;;10.25;97.35;101696.13;4997992;28;20514;-68
2021/12/19 11:04:15;;;;;;;1.50;0.60;;;;;;;10.23;97.42;101689.47;4985713;28;20046;-67
2021/12/19 11:06:43;;;;;;;2.30;1.05;;;;;;;10.22;98.19;101685.22;4991716;28;20117;-67
2021/12/19 11:09:13;;;;;;;0.85;0.52;;;;;;;10.29;97.39;101675.50;4993423;28;20034;-68
2021/12/19 11:11:43;;;;;;;3.88;0.88;;;;;;;10.29;97.27;101680.09;4987985;28;20076;-69
2021/12/19 11:14:12;;;;;;;1.42;1.33;;;;;;;10.28;97.81;101684.69;4978494;28;20853;-67
2021/12/19 11:16:38;;;;;;;1.58;0.70;;;;;;;10.26;98.04;101688.84;4996125;28;20038;-67
2021/12/19 11:19:04;;;;;;;1.52;0.60;;;;;;;10.18;98.27;101674.28;4986032;28;20041;-68
2021/12/19 11:21:33;;;;;;;0.52;0.40;;;;;;;10.27;98.18;101674.25;4989115;28;20496;-68
2021/12/19 11:24:00;;;;;;;0.40;0.40;;;;;;;10.31;97.58;101678.66;4994820;28;20038;-69
2021/12/19 11:26:27;;;;;;;0.75;0.65;;;;;;;10.21;97.55;101667.47;4999283;28;20068;-67
2021/12/19 11:28:55;;;;;;;3.20;0.60;;;;;;;10.36;98.20;101675.78;5001505;28;20084;-68
2021/12/19 11:31:23;;;;;;;1.77;0.47;;;;;;;10.36;97.82;101665.00;4993174;28;20050;-67
2021/12/19 11:33:51;;;;;;;3.22;0.52;;;;;;;10.31;97.67;101669.78;4995448;28;20022;-67
2021/12/19 11:36:21;;;;;;;9.25;1.60;;;;;;;10.39;97.71;101656.28;4996373;28;20890;-69
2021/12/19 11:38:47;;;;;;;0.60;0.40;;;;;;;10.39;97.36;101667.06;4999717;28;20034;-67
2021/12/19 11:41:13;;;;;;;2.75;1.13;;;;;;;10.35;97.14;101660.75;4992998;28;20030;-67
2021/12/19 11:43:40;;;;;;;0.70;0.45;;;;;;;10.33;98.09;101659.50;5002517;28;20473;-67
2021/12/19 11:46:24;;;;;;;0.82;0.40;;;;;;;10.44;97.36;101655.28;5005694;28;20033;-68
2021/12/19 11:49:16;;;;;;;4.57;0.75;;;;;;;10.41;97.42;101645.19;4994956;28;20065;-68
2021/12/19 11:51:41;;;;;;;3.95;0.68;;;;;;;10.44;97.75;101641.81;5005253;28;20037;-67
2021/12/19 11:54:17;;;;;;;0.75;0.47;;;;;;;10.47;96.72;101636.56;5003438;28;20073;-67
2021/12/19 11:57:06;;;;;;;0.82;0.82;;;;;;;10.31;97.26;101627.50;4996651;28;20084;-67
2021/12/19 11:59:32;;;;;;;0.38;0.38;;;;;;;10.27;99.12;101631.19;4997786;28;20359;-67
2021/12/19 12:02:20;;;;;;;2.38;0.40;;;;;;;10.43;98.04;101613.31;4988443;28;20058;-67
2021/12/19 12:05:15;;;;;;;1.10;0.45;;;;;;;10.60;96.35;101621.25;4989930;28;20057;-67
2021/12/19 12:08:05;;;;;;;0.50;0.50;;;;;;;10.48;96.31;101619.28;5008005;28;20045;-68
2021/12/19 12:13:23;;;;;;;3.67;0.88;;;;;;;10.53;95.39;101588.69;4992725;28;20538;-69
2021/12/19 12:15:51;;;;;;;1.30;0.52;;;;;;;10.60;94.43;101586.25;4991740;28;20038;-67
2021/12/19 12:18:38;;;;;;;3.63;0.98;;;;;;;10.59;93.38;101588.13;4991778;28;20052;-67
2021/12/19 12:21:25;;;;;;;2.83;1.02;;;;;;;10.59;92.74;101573.88;4998421;28;20454;-68
2021/12/19 12:24:14;;;;;;;0.50;0.40;;;;;;;10.60;92.53;101580.84;4988004;28;20478;-67
2021/12/19 12:26:57;;;;;;;1.15;0.30;;;;;;;10.62;92.02;101586.69;4994100;28;20030;-67
2021/12/19 12:29:23;;;;;;;2.47;0.77;;;;;;;10.49;92.67;101575.06;5000714;28;20378;-67
2021/12/19 12:31:48;;;;;;;1.13;0.52;;;;;;;10.56;92.91;101578.03;5001909;28;20037;-67
2021/12/19 12:34:16;;;;;;;3.97;0.40;;;;;;;10.59;92.18;101563.91;4984699;28;20037;-68
2021/12/19 12:36:42;;;;;;;1.17;0.32;;;;;;;10.51;91.25;101554.00;4993830;28;20038;-67
2021/12/19 12:39:16;;;;;;;6.57;0.40;;;;;;;10.57;90.51;101555.34;4992453;28;20045;-69
2021/12/19 12:44:16;;;;;;;0.60;0.43;;;;;;;10.59;90.36;101557.72;4999839;28;20061;-67
2021/12/19 12:46:42;;;;;;;0.45;0.20;;;;;;;10.49;90.63;101542.75;4989212;28;20042;-68